Авиационная погода в Вадсё

Регион: 
Погода METAR: 
ENVD 281150Z 24009KT CAVOK 12/05 Q1024
Время наблюдения
2021-09-28T11:50:00Z
Температура C
12.0
Точка росы
5.0
Направление ветра
240
Скорость ветра (узлы)
9
Метео видимость
6.21
Явления погоды
Условия полета
VFR